首页
METAR-TAF:

METAR-TAF

机场 :

威尔明顿, 北卡罗来纳州, 美国

纬度: 34-16-14N, 经度: 077-54-09W, 海拔: 10米

当前天气观测

该预报发布于59分钟前的08:53 UTC
风速7节,风向
温度 26°C
湿度 84%
气压 1019 hPa
能見度: 16.1公里
少量云层高于1200英尺

METAR: KILM 260853Z AUTO 19007KT 10SM FEW012 26/23 A3008 RMK AO2 SLP186 T02560228 56009

时间: 05:52 (09:52 UTC)

预报

该预报发布于42分钟前的09:10 UTC
预报有效从26日的 09点(UTC)到 27日的 06点(UTC)
风速6节,风向
能見度: 10公里
散云层高于1500英尺
短暂存在
从 26日的 09点(UTC)到 26日的 11点(UTC)
多云层高于1500英尺
从 26日的 1300点(UTC)
风速8节,风向西南
能見度: 10公里
散云层高于20000英尺
从 26日的 1800点(UTC)
风速7节,风向西
能見度: 10公里
少量云层高于6000英尺
从 26日的 2300点(UTC)
风速9节,风向西南
能見度: 10公里
少量云层高于8000英尺
从 27日的 0300点(UTC)
风速5节,风向西南
能見度: 10公里
散云层高于20000英尺

TAF: KILM 260910Z 2609/2706 19006KT P6SM SCT015 TEMPO 2609/2611 BKN015 FM261300 23008KT P6SM SCT200 FM261800 26007KT P6SM FEW060 FM262300 23009KT P6SM FEW080 FM270300 22005KT P6SM SCT200

超过4000个机场的气象观测和天气预报(METAR&TAF报告)。

可查询的气象台以黄色和红色小点在地图上表示。

将鼠标移到小点上方,可查看气象台名称。

然后点击查看天气观测和预报。

如需切换地图:点击带黑十字的绿色按钮放大地图;点击带横线的绿色按钮缩小地图;或者点击绿色箭头查看邻近地区的地图。


METAR-TAF: